sensor_id;sensor_type;location;lat;lon;timestamp;P1;durP1;ratioP1;P2;durP2;ratioP2
70942;SDS011;59154;51.970;5.650;2022-12-18T00:00:04;31.8;;;19.3;;
70942;SDS011;59154;51.970;5.650;2022-12-18T00:05:02;31.8;;;18.0;;
70942;SDS011;59154;51.970;5.650;2022-12-18T00:10:03;32.7;;;19.6;;
70942;SDS011;59154;51.970;5.650;2022-12-18T00:15:03;30.1;;;17.5;;
70942;SDS011;59154;51.970;5.650;2022-12-18T00:20:04;34.0;;;20.1;;
70942;SDS011;59154;51.970;5.650;2022-12-18T00:25:02;31.2;;;18.5;;
70942;SDS011;59154;51.970;5.650;2022-12-18T00:30:02;31.0;;;18.3;;
70942;SDS011;59154;51.970;5.650;2022-12-18T00:35:02;33.1;;;18.3;;
70942;SDS011;59154;51.970;5.650;2022-12-18T00:40:04;30.8;;;17.6;;
70942;SDS011;59154;51.970;5.650;2022-12-18T00:45:02;32.9;;;19.4;;
70942;SDS011;59154;51.970;5.650;2022-12-18T00:50:03;30.4;;;17.7;;
70942;SDS011;59154;51.970;5.650;2022-12-18T00:55:02;30.3;;;17.2;;
70942;SDS011;59154;51.970;5.650;2022-12-18T01:00:03;32.3;;;18.8;;
70942;SDS011;59154;51.970;5.650;2022-12-18T01:05:02;31.1;;;17.4;;
70942;SDS011;59154;51.970;5.650;2022-12-18T01:10:03;29.6;;;17.6;;
70942;SDS011;59154;51.970;5.650;2022-12-18T01:15:02;35.5;;;18.5;;
70942;SDS011;59154;51.970;5.650;2022-12-18T01:20:03;30.6;;;18.0;;
70942;SDS011;59154;51.970;5.650;2022-12-18T01:25:03;29.8;;;17.5;;
70942;SDS011;59154;51.970;5.650;2022-12-18T01:30:03;27.4;;;18.2;;
70942;SDS011;59154;51.970;5.650;2022-12-18T01:35:03;30.2;;;17.0;;
70942;SDS011;59154;51.970;5.650;2022-12-18T01:40:03;32.6;;;17.7;;
70942;SDS011;59154;51.970;5.650;2022-12-18T01:45:03;24.2;;;15.1;;
70942;SDS011;59154;51.970;5.650;2022-12-18T01:50:03;28.6;;;17.2;;
70942;SDS011;59154;51.970;5.650;2022-12-18T01:55:03;24.8;;;16.1;;
70942;SDS011;59154;51.970;5.650;2022-12-18T02:00:04;26.6;;;16.8;;
70942;SDS011;59154;51.970;5.650;2022-12-18T02:05:02;31.2;;;16.5;;
70942;SDS011;59154;51.970;5.650;2022-12-18T02:10:04;25.1;;;15.2;;
70942;SDS011;59154;51.970;5.650;2022-12-18T02:15:05;24.7;;;14.9;;
70942;SDS011;59154;51.970;5.650;2022-12-18T02:20:06;27.6;;;15.8;;
70942;SDS011;59154;51.970;5.650;2022-12-18T02:25:06;26.0;;;16.4;;
70942;SDS011;59154;51.970;5.650;2022-12-18T02:30:03;24.9;;;15.1;;
70942;SDS011;59154;51.970;5.650;2022-12-18T02:35:02;29.6;;;16.2;;
70942;SDS011;59154;51.970;5.650;2022-12-18T02:40:03;22.4;;;14.4;;
70942;SDS011;59154;51.970;5.650;2022-12-18T02:45:03;24.5;;;13.8;;
70942;SDS011;59154;51.970;5.650;2022-12-18T02:50:05;20.8;;;13.4;;
70942;SDS011;59154;51.970;5.650;2022-12-18T02:55:07;24.8;;;15.3;;
70942;SDS011;59154;51.970;5.650;2022-12-18T03:00:04;25.5;;;14.0;;
70942;SDS011;59154;51.970;5.650;2022-12-18T03:05:04;23.6;;;13.4;;
70942;SDS011;59154;51.970;5.650;2022-12-18T03:10:02;20.5;;;13.3;;
70942;SDS011;59154;51.970;5.650;2022-12-18T03:15:03;22.2;;;12.9;;
70942;SDS011;59154;51.970;5.650;2022-12-18T03:20:05;21.9;;;13.4;;
70942;SDS011;59154;51.970;5.650;2022-12-18T03:25:03;21.9;;;13.2;;
70942;SDS011;59154;51.970;5.650;2022-12-18T03:30:04;22.2;;;14.7;;
70942;SDS011;59154;51.970;5.650;2022-12-18T03:35:03;21.5;;;12.9;;
70942;SDS011;59154;51.970;5.650;2022-12-18T03:40:03;20.5;;;12.7;;
70942;SDS011;59154;51.970;5.650;2022-12-18T03:45:04;22.6;;;13.9;;
70942;SDS011;59154;51.970;5.650;2022-12-18T03:50:04;24.0;;;14.2;;
70942;SDS011;59154;51.970;5.650;2022-12-18T03:55:02;21.4;;;13.1;;
70942;SDS011;59154;51.970;5.650;2022-12-18T04:00:05;19.2;;;11.7;;
70942;SDS011;59154;51.970;5.650;2022-12-18T04:05:03;19.7;;;12.8;;
70942;SDS011;59154;51.970;5.650;2022-12-18T04:10:03;18.5;;;11.5;;
70942;SDS011;59154;51.970;5.650;2022-12-18T04:15:02;18.7;;;11.5;;
70942;SDS011;59154;51.970;5.650;2022-12-18T04:20:03;19.3;;;11.6;;
70942;SDS011;59154;51.970;5.650;2022-12-18T04:25:02;16.3;;;11.6;;
70942;SDS011;59154;51.970;5.650;2022-12-18T04:30:03;16.7;;;11.0;;
70942;SDS011;59154;51.970;5.650;2022-12-18T04:35:02;17.8;;;10.8;;
70942;SDS011;59154;51.970;5.650;2022-12-18T04:40:04;17.7;;;11.1;;
70942;SDS011;59154;51.970;5.650;2022-12-18T04:45:03;15.8;;;10.5;;
70942;SDS011;59154;51.970;5.650;2022-12-18T04:50:03;17.0;;;10.7;;
70942;SDS011;59154;51.970;5.650;2022-12-18T04:55:02;14.8;;;10.6;;
70942;SDS011;59154;51.970;5.650;2022-12-18T05:00:03;19.9;;;10.7;;
70942;SDS011;59154;51.970;5.650;2022-12-18T05:05:02;18.8;;;11.1;;
70942;SDS011;59154;51.970;5.650;2022-12-18T05:10:03;15.4;;;10.5;;
70942;SDS011;59154;51.970;5.650;2022-12-18T05:15:02;15.1;;;10.7;;
70942;SDS011;59154;51.970;5.650;2022-12-18T05:20:03;16.5;;;10.2;;
70942;SDS011;59154;51.970;5.650;2022-12-18T05:25:02;15.0;;;10.0;;
70942;SDS011;59154;51.970;5.650;2022-12-18T05:30:03;14.9;;;10.4;;
70942;SDS011;59154;51.970;5.650;2022-12-18T05:35:02;14.5;;;10.0;;
70942;SDS011;59154;51.970;5.650;2022-12-18T05:40:03;15.3;;;9.9;;
70942;SDS011;59154;51.970;5.650;2022-12-18T05:45:02;13.9;;;9.9;;
70942;SDS011;59154;51.970;5.650;2022-12-18T05:50:02;14.8;;;8.6;;
70942;SDS011;59154;51.970;5.650;2022-12-18T05:55:02;12.6;;;9.1;;
70942;SDS011;59154;51.970;5.650;2022-12-18T06:00:04;15.3;;;9.2;;
70942;SDS011;59154;51.970;5.650;2022-12-18T06:05:02;13.9;;;8.9;;
70942;SDS011;59154;51.970;5.650;2022-12-18T06:10:03;11.3;;;7.9;;
70942;SDS011;59154;51.970;5.650;2022-12-18T06:15:02;13.3;;;8.3;;
70942;SDS011;59154;51.970;5.650;2022-12-18T06:20:04;16.0;;;9.7;;
70942;SDS011;59154;51.970;5.650;2022-12-18T06:25:02;13.7;;;8.8;;
70942;SDS011;59154;51.970;5.650;2022-12-18T06:30:02;12.7;;;8.3;;
70942;SDS011;59154;51.970;5.650;2022-12-18T06:35:02;12.9;;;8.6;;
70942;SDS011;59154;51.970;5.650;2022-12-18T06:40:03;14.6;;;8.5;;
70942;SDS011;59154;51.970;5.650;2022-12-18T06:45:02;13.2;;;8.6;;
70942;SDS011;59154;51.970;5.650;2022-12-18T06:50:03;14.4;;;8.3;;
70942;SDS011;59154;51.970;5.650;2022-12-18T06:55:03;16.9;;;8.7;;
70942;SDS011;59154;51.970;5.650;2022-12-18T07:00:04;13.2;;;8.8;;
70942;SDS011;59154;51.970;5.650;2022-12-18T07:05:03;14.1;;;8.7;;
70942;SDS011;59154;51.970;5.650;2022-12-18T07:10:03;12.0;;;9.4;;
70942;SDS011;59154;51.970;5.650;2022-12-18T07:15:03;14.1;;;9.2;;
70942;SDS011;59154;51.970;5.650;2022-12-18T07:20:03;12.7;;;9.0;;
70942;SDS011;59154;51.970;5.650;2022-12-18T07:25:02;13.0;;;8.2;;
70942;SDS011;59154;51.970;5.650;2022-12-18T07:30:03;15.0;;;9.8;;
70942;SDS011;59154;51.970;5.650;2022-12-18T07:35:02;13.4;;;8.1;;
70942;SDS011;59154;51.970;5.650;2022-12-18T07:40:03;12.0;;;8.6;;
70942;SDS011;59154;51.970;5.650;2022-12-18T07:45:03;13.4;;;8.0;;
70942;SDS011;59154;51.970;5.650;2022-12-18T07:50:03;11.8;;;8.1;;
70942;SDS011;59154;51.970;5.650;2022-12-18T07:55:02;13.6;;;8.3;;
70942;SDS011;59154;51.970;5.650;2022-12-18T08:00:03;10.9;;;8.0;;
70942;SDS011;59154;51.970;5.650;2022-12-18T08:05:02;13.6;;;9.6;;
70942;SDS011;59154;51.970;5.650;2022-12-18T08:10:03;14.2;;;8.7;;
70942;SDS011;59154;51.970;5.650;2022-12-18T08:15:02;14.7;;;9.0;;
70942;SDS011;59154;51.970;5.650;2022-12-18T08:20:03;11.9;;;8.6;;
70942;SDS011;59154;51.970;5.650;2022-12-18T08:25:02;15.1;;;8.7;;
70942;SDS011;59154;51.970;5.650;2022-12-18T08:30:03;13.4;;;8.4;;
70942;SDS011;59154;51.970;5.650;2022-12-18T08:35:02;12.4;;;8.1;;
70942;SDS011;59154;51.970;5.650;2022-12-18T08:40:03;12.1;;;8.3;;
70942;SDS011;59154;51.970;5.650;2022-12-18T08:45:02;12.3;;;7.7;;
70942;SDS011;59154;51.970;5.650;2022-12-18T08:50:02;12.8;;;8.1;;
70942;SDS011;59154;51.970;5.650;2022-12-18T08:55:02;12.5;;;7.5;;
70942;SDS011;59154;51.970;5.650;2022-12-18T09:00:03;9.4;;;7.3;;
70942;SDS011;59154;51.970;5.650;2022-12-18T09:05:02;11.7;;;7.6;;
70942;SDS011;59154;51.970;5.650;2022-12-18T09:10:03;11.3;;;7.4;;
70942;SDS011;59154;51.970;5.650;2022-12-18T09:15:02;12.3;;;7.2;;
70942;SDS011;59154;51.970;5.650;2022-12-18T09:20:03;12.6;;;7.3;;
70942;SDS011;59154;51.970;5.650;2022-12-18T09:25:02;12.0;;;7.5;;
70942;SDS011;59154;51.970;5.650;2022-12-18T09:30:03;11.6;;;7.2;;
70942;SDS011;59154;51.970;5.650;2022-12-18T09:35:03;10.9;;;6.7;;
70942;SDS011;59154;51.970;5.650;2022-12-18T09:40:03;11.6;;;6.6;;
70942;SDS011;59154;51.970;5.650;2022-12-18T09:45:02;12.3;;;7.7;;
70942;SDS011;59154;51.970;5.650;2022-12-18T09:50:04;10.7;;;7.4;;
70942;SDS011;59154;51.970;5.650;2022-12-18T09:55:05;11.8;;;6.9;;
70942;SDS011;59154;51.970;5.650;2022-12-18T10:00:04;10.4;;;6.6;;
70942;SDS011;59154;51.970;5.650;2022-12-18T10:05:03;12.2;;;7.7;;
70942;SDS011;59154;51.970;5.650;2022-12-18T10:10:04;9.3;;;6.4;;
70942;SDS011;59154;51.970;5.650;2022-12-18T10:15:04;11.4;;;6.9;;
70942;SDS011;59154;51.970;5.650;2022-12-18T10:20:05;8.7;;;6.1;;
70942;SDS011;59154;51.970;5.650;2022-12-18T10:25:03;9.4;;;6.4;;
70942;SDS011;59154;51.970;5.650;2022-12-18T10:30:04;11.1;;;6.8;;
70942;SDS011;59154;51.970;5.650;2022-12-18T10:35:02;8.9;;;6.9;;
70942;SDS011;59154;51.970;5.650;2022-12-18T10:40:06;10.7;;;6.8;;
70942;SDS011;59154;51.970;5.650;2022-12-18T10:45:05;10.8;;;6.8;;
70942;SDS011;59154;51.970;5.650;2022-12-18T10:50:03;9.9;;;6.4;;
70942;SDS011;59154;51.970;5.650;2022-12-18T10:55:03;9.8;;;6.8;;
70942;SDS011;59154;51.970;5.650;2022-12-18T11:00:35;9.1;;;5.8;;
70942;SDS011;59154;51.970;5.650;2022-12-18T11:05:04;11.4;;;6.8;;
70942;SDS011;59154;51.970;5.650;2022-12-18T11:10:02;9.5;;;6.6;;
70942;SDS011;59154;51.970;5.650;2022-12-18T11:15:02;9.6;;;6.8;;
70942;SDS011;59154;51.970;5.650;2022-12-18T11:20:03;9.5;;;6.3;;
70942;SDS011;59154;51.970;5.650;2022-12-18T11:25:04;10.8;;;6.8;;
70942;SDS011;59154;51.970;5.650;2022-12-18T11:30:07;12.7;;;7.0;;
70942;SDS011;59154;51.970;5.650;2022-12-18T11:35:04;10.7;;;6.7;;
70942;SDS011;59154;51.970;5.650;2022-12-18T11:40:05;8.5;;;6.2;;
70942;SDS011;59154;51.970;5.650;2022-12-18T11:45:03;10.2;;;6.3;;
70942;SDS011;59154;51.970;5.650;2022-12-18T11:50:05;9.8;;;6.5;;
70942;SDS011;59154;51.970;5.650;2022-12-18T11:55:04;10.6;;;6.3;;
70942;SDS011;59154;51.970;5.650;2022-12-18T12:00:04;11.3;;;6.4;;
70942;SDS011;59154;51.970;5.650;2022-12-18T12:05:05;10.3;;;7.4;;
70942;SDS011;59154;51.970;5.650;2022-12-18T12:10:06;11.0;;;6.9;;
70942;SDS011;59154;51.970;5.650;2022-12-18T12:15:03;11.0;;;7.6;;
70942;SDS011;59154;51.970;5.650;2022-12-18T12:20:06;11.1;;;6.9;;
70942;SDS011;59154;51.970;5.650;2022-12-18T12:25:07;10.7;;;6.7;;
70942;SDS011;59154;51.970;5.650;2022-12-18T12:30:05;10.6;;;6.7;;
70942;SDS011;59154;51.970;5.650;2022-12-18T12:35:06;10.6;;;7.3;;
70942;SDS011;59154;51.970;5.650;2022-12-18T12:40:03;12.4;;;7.5;;
70942;SDS011;59154;51.970;5.650;2022-12-18T12:45:03;11.9;;;8.2;;
70942;SDS011;59154;51.970;5.650;2022-12-18T12:50:03;9.3;;;6.5;;
70942;SDS011;59154;51.970;5.650;2022-12-18T12:55:04;10.9;;;7.0;;
70942;SDS011;59154;51.970;5.650;2022-12-18T13:00:04;10.8;;;7.1;;
70942;SDS011;59154;51.970;5.650;2022-12-18T13:05:03;10.6;;;6.9;;
70942;SDS011;59154;51.970;5.650;2022-12-18T13:10:36;11.0;;;6.7;;
70942;SDS011;59154;51.970;5.650;2022-12-18T13:15:11;10.4;;;6.8;;
70942;SDS011;59154;51.970;5.650;2022-12-18T13:20:04;10.1;;;7.2;;
70942;SDS011;59154;51.970;5.650;2022-12-18T13:25:03;11.3;;;6.6;;
70942;SDS011;59154;51.970;5.650;2022-12-18T13:30:10;10.1;;;6.7;;
70942;SDS011;59154;51.970;5.650;2022-12-18T13:35:41;11.7;;;6.9;;
70942;SDS011;59154;51.970;5.650;2022-12-18T13:40:06;12.1;;;7.6;;
70942;SDS011;59154;51.970;5.650;2022-12-18T13:45:03;10.6;;;7.2;;
70942;SDS011;59154;51.970;5.650;2022-12-18T13:50:09;12.2;;;7.7;;
70942;SDS011;59154;51.970;5.650;2022-12-18T13:55:06;13.4;;;8.0;;
70942;SDS011;59154;51.970;5.650;2022-12-18T14:00:16;11.9;;;8.0;;
70942;SDS011;59154;51.970;5.650;2022-12-18T14:05:03;10.3;;;7.1;;
70942;SDS011;59154;51.970;5.650;2022-12-18T14:10:03;13.8;;;7.1;;
70942;SDS011;59154;51.970;5.650;2022-12-18T14:15:03;10.5;;;7.0;;
70942;SDS011;59154;51.970;5.650;2022-12-18T14:20:03;12.3;;;8.1;;
70942;SDS011;59154;51.970;5.650;2022-12-18T14:25:13;12.0;;;7.9;;
70942;SDS011;59154;51.970;5.650;2022-12-18T14:30:15;10.7;;;7.3;;
70942;SDS011;59154;51.970;5.650;2022-12-18T14:35:12;11.8;;;8.2;;
70942;SDS011;59154;51.970;5.650;2022-12-18T14:40:03;11.2;;;7.0;;
70942;SDS011;59154;51.970;5.650;2022-12-18T14:45:31;10.7;;;7.3;;
70942;SDS011;59154;51.970;5.650;2022-12-18T14:50:02;10.3;;;7.2;;
70942;SDS011;59154;51.970;5.650;2022-12-18T14:55:02;11.3;;;8.0;;
70942;SDS011;59154;51.970;5.650;2022-12-18T15:00:04;11.6;;;7.6;;
70942;SDS011;59154;51.970;5.650;2022-12-18T15:05:03;12.2;;;8.2;;
70942;SDS011;59154;51.970;5.650;2022-12-18T15:10:07;12.9;;;8.2;;
70942;SDS011;59154;51.970;5.650;2022-12-18T15:15:03;11.7;;;8.1;;
70942;SDS011;59154;51.970;5.650;2022-12-18T15:20:08;10.6;;;7.7;;
70942;SDS011;59154;51.970;5.650;2022-12-18T15:25:03;10.6;;;7.5;;
70942;SDS011;59154;51.970;5.650;2022-12-18T15:30:20;13.2;;;7.6;;
70942;SDS011;59154;51.970;5.650;2022-12-18T15:35:03;10.5;;;7.6;;
70942;SDS011;59154;51.970;5.650;2022-12-18T15:40:04;13.0;;;7.9;;
70942;SDS011;59154;51.970;5.650;2022-12-18T15:45:03;11.7;;;7.9;;
70942;SDS011;59154;51.970;5.650;2022-12-18T15:50:03;12.2;;;8.1;;
70942;SDS011;59154;51.970;5.650;2022-12-18T15:55:02;11.8;;;8.3;;
70942;SDS011;59154;51.970;5.650;2022-12-18T16:00:03;13.4;;;9.2;;
70942;SDS011;59154;51.970;5.650;2022-12-18T16:05:02;13.6;;;9.1;;
70942;SDS011;59154;51.970;5.650;2022-12-18T16:10:02;12.6;;;8.2;;
70942;SDS011;59154;51.970;5.650;2022-12-18T16:15:02;14.5;;;9.1;;
70942;SDS011;59154;51.970;5.650;2022-12-18T16:20:04;13.1;;;8.3;;
70942;SDS011;59154;51.970;5.650;2022-12-18T16:25:02;14.0;;;9.0;;
70942;SDS011;59154;51.970;5.650;2022-12-18T16:30:02;14.8;;;9.7;;
70942;SDS011;59154;51.970;5.650;2022-12-18T16:35:02;15.6;;;9.7;;
70942;SDS011;59154;51.970;5.650;2022-12-18T16:40:03;13.0;;;8.6;;
70942;SDS011;59154;51.970;5.650;2022-12-18T16:45:02;14.3;;;9.2;;
70942;SDS011;59154;51.970;5.650;2022-12-18T16:50:03;14.1;;;9.3;;
70942;SDS011;59154;51.970;5.650;2022-12-18T16:55:02;13.3;;;9.0;;
70942;SDS011;59154;51.970;5.650;2022-12-18T17:00:03;14.5;;;9.1;;
70942;SDS011;59154;51.970;5.650;2022-12-18T17:05:02;15.3;;;10.1;;
70942;SDS011;59154;51.970;5.650;2022-12-18T17:10:02;13.2;;;9.5;;
70942;SDS011;59154;51.970;5.650;2022-12-18T17:15:02;14.4;;;9.8;;
70942;SDS011;59154;51.970;5.650;2022-12-18T17:20:03;13.8;;;9.6;;
70942;SDS011;59154;51.970;5.650;2022-12-18T17:25:02;18.8;;;10.8;;
70942;SDS011;59154;51.970;5.650;2022-12-18T20:05:02;20.9;;;14.3;;
70942;SDS011;59154;51.970;5.650;2022-12-18T20:10:03;16.4;;;11.0;;
70942;SDS011;59154;51.970;5.650;2022-12-18T20:15:02;17.6;;;11.4;;
70942;SDS011;59154;51.970;5.650;2022-12-18T20:20:03;18.9;;;12.5;;
70942;SDS011;59154;51.970;5.650;2022-12-18T20:25:02;16.5;;;10.7;;
70942;SDS011;59154;51.970;5.650;2022-12-18T20:30:03;17.9;;;11.5;;
70942;SDS011;59154;51.970;5.650;2022-12-18T20:35:02;15.3;;;10.9;;
70942;SDS011;59154;51.970;5.650;2022-12-18T20:40:03;19.4;;;12.0;;
70942;SDS011;59154;51.970;5.650;2022-12-18T20:45:03;15.4;;;11.7;;
70942;SDS011;59154;51.970;5.650;2022-12-18T20:50:02;19.5;;;12.0;;
70942;SDS011;59154;51.970;5.650;2022-12-18T20:55:03;17.6;;;11.5;;
70942;SDS011;59154;51.970;5.650;2022-12-18T21:00:03;18.6;;;12.0;;
70942;SDS011;59154;51.970;5.650;2022-12-18T21:05:02;20.6;;;12.9;;
70942;SDS011;59154;51.970;5.650;2022-12-18T21:10:03;15.7;;;11.4;;
70942;SDS011;59154;51.970;5.650;2022-12-18T21:15:03;18.7;;;11.9;;
70942;SDS011;59154;51.970;5.650;2022-12-18T21:20:03;19.8;;;12.4;;
70942;SDS011;59154;51.970;5.650;2022-12-18T21:25:02;16.5;;;11.2;;
70942;SDS011;59154;51.970;5.650;2022-12-18T21:30:02;16.1;;;11.4;;
70942;SDS011;59154;51.970;5.650;2022-12-18T21:35:02;19.6;;;11.8;;
70942;SDS011;59154;51.970;5.650;2022-12-18T21:40:03;17.8;;;11.6;;
70942;SDS011;59154;51.970;5.650;2022-12-18T21:45:02;19.1;;;12.5;;
70942;SDS011;59154;51.970;5.650;2022-12-18T21:50:02;17.4;;;11.7;;
70942;SDS011;59154;51.970;5.650;2022-12-18T21:55:03;19.5;;;12.4;;
70942;SDS011;59154;51.970;5.650;2022-12-18T22:00:03;20.7;;;12.3;;
70942;SDS011;59154;51.970;5.650;2022-12-18T22:05:02;17.9;;;12.5;;
70942;SDS011;59154;51.970;5.650;2022-12-18T22:10:03;22.0;;;12.9;;
70942;SDS011;59154;51.970;5.650;2022-12-18T22:15:03;19.1;;;13.6;;
70942;SDS011;59154;51.970;5.650;2022-12-18T22:20:03;21.6;;;12.4;;
70942;SDS011;59154;51.970;5.650;2022-12-18T22:25:02;17.4;;;12.4;;
70942;SDS011;59154;51.970;5.650;2022-12-18T22:30:03;19.4;;;13.5;;
70942;SDS011;59154;51.970;5.650;2022-12-18T22:35:03;18.7;;;13.8;;
70942;SDS011;59154;51.970;5.650;2022-12-18T22:40:03;17.8;;;12.5;;
70942;SDS011;59154;51.970;5.650;2022-12-18T22:45:02;22.9;;;13.1;;
70942;SDS011;59154;51.970;5.650;2022-12-18T22:50:02;21.3;;;12.4;;
70942;SDS011;59154;51.970;5.650;2022-12-18T22:55:03;22.7;;;13.9;;
70942;SDS011;59154;51.970;5.650;2022-12-18T23:00:03;20.4;;;13.0;;
70942;SDS011;59154;51.970;5.650;2022-12-18T23:05:02;17.2;;;11.8;;
70942;SDS011;59154;51.970;5.650;2022-12-18T23:10:03;20.2;;;12.8;;
70942;SDS011;59154;51.970;5.650;2022-12-18T23:15:02;19.4;;;13.9;;
70942;SDS011;59154;51.970;5.650;2022-12-18T23:20:03;23.5;;;14.5;;
70942;SDS011;59154;51.970;5.650;2022-12-18T23:25:02;21.2;;;13.0;;
70942;SDS011;59154;51.970;5.650;2022-12-18T23:30:03;20.0;;;12.6;;
70942;SDS011;59154;51.970;5.650;2022-12-18T23:35:02;20.0;;;12.7;;
70942;SDS011;59154;51.970;5.650;2022-12-18T23:40:03;23.5;;;14.7;;
70942;SDS011;59154;51.970;5.650;2022-12-18T23:45:02;20.2;;;13.2;;
70942;SDS011;59154;51.970;5.650;2022-12-18T23:50:03;22.5;;;14.0;;
70942;SDS011;59154;51.970;5.650;2022-12-18T23:55:03;23.2;;;13.6;;
